sensor_id;sensor_type;location;lat;lon;timestamp;pressure;altitude;pressure_sealevel;temperature;humidity
68793;BME280;55778;54.346;10.210;2023-06-19T00:00:27;100924.66;;;17.24;95.14
68793;BME280;55778;54.346;10.210;2023-06-19T00:02:52;100923.69;;;17.17;95.41
68793;BME280;55778;54.346;10.210;2023-06-19T00:05:18;100925.59;;;17.17;96.13
68793;BME280;55778;54.346;10.210;2023-06-19T00:07:43;100920.84;;;17.25;95.70
68793;BME280;55778;54.346;10.210;2023-06-19T00:10:08;100918.69;;;17.21;96.01
68793;BME280;55778;54.346;10.210;2023-06-19T00:12:34;100917.22;;;17.10;97.01
68793;BME280;55778;54.346;10.210;2023-06-19T00:14:59;100916.34;;;17.10;97.03
68793;BME280;55778;54.346;10.210;2023-06-19T00:17:25;100920.16;;;17.09;96.91
68793;BME280;55778;54.346;10.210;2023-06-19T00:19:53;100920.03;;;17.02;97.79
68793;BME280;55778;54.346;10.210;2023-06-19T00:22:19;100913.09;;;17.06;97.64
68793;BME280;55778;54.346;10.210;2023-06-19T00:24:44;100918.97;;;17.03;97.89
68793;BME280;55778;54.346;10.210;2023-06-19T00:27:10;100913.53;;;16.95;97.94
68793;BME280;55778;54.346;10.210;2023-06-19T00:29:35;100908.59;;;16.91;97.63
68793;BME280;55778;54.346;10.210;2023-06-19T00:32:00;100902.25;;;17.05;97.78
68793;BME280;55778;54.346;10.210;2023-06-19T00:34:29;100911.56;;;17.04;97.32
68793;BME280;55778;54.346;10.210;2023-06-19T00:36:54;100900.06;;;17.00;96.87
68793;BME280;55778;54.346;10.210;2023-06-19T00:39:24;100900.56;;;17.04;97.02
68793;BME280;55778;54.346;10.210;2023-06-19T00:41:54;100896.75;;;17.05;96.31
68793;BME280;55778;54.346;10.210;2023-06-19T00:44:19;100897.63;;;17.05;95.92
68793;BME280;55778;54.346;10.210;2023-06-19T00:46:45;100889.59;;;16.96;95.78
68793;BME280;55778;54.346;10.210;2023-06-19T00:49:11;100893.91;;;16.98;95.62
68793;BME280;55778;54.346;10.210;2023-06-19T00:51:37;100884.47;;;16.93;95.03
68793;BME280;55778;54.346;10.210;2023-06-19T00:54:03;100889.00;;;16.86;94.96
68793;BME280;55778;54.346;10.210;2023-06-19T00:56:30;100883.44;;;16.94;94.16
68793;BME280;55778;54.346;10.210;2023-06-19T00:58:56;100895.00;;;16.89;94.16
68793;BME280;55778;54.346;10.210;2023-06-19T01:01:21;100877.81;;;16.87;94.64
68793;BME280;55778;54.346;10.210;2023-06-19T01:03:49;100878.50;;;16.89;93.81
68793;BME280;55778;54.346;10.210;2023-06-19T01:06:29;100876.94;;;16.87;94.15
68793;BME280;55778;54.346;10.210;2023-06-19T01:09:06;100876.16;;;16.78;94.64
68793;BME280;55778;54.346;10.210;2023-06-19T01:11:41;100880.81;;;16.78;94.54
68793;BME280;55778;54.346;10.210;2023-06-19T01:14:14;100874.63;;;16.76;94.77
68793;BME280;55778;54.346;10.210;2023-06-19T01:16:41;100867.22;;;16.76;94.78
68793;BME280;55778;54.346;10.210;2023-06-19T01:19:10;100866.38;;;16.76;95.43
68793;BME280;55778;54.346;10.210;2023-06-19T01:21:35;100866.88;;;16.79;95.07
68793;BME280;55778;54.346;10.210;2023-06-19T01:24:02;100856.50;;;16.81;94.57
68793;BME280;55778;54.346;10.210;2023-06-19T01:26:27;100860.31;;;16.80;94.86
68793;BME280;55778;54.346;10.210;2023-06-19T01:28:53;100851.00;;;16.81;94.45
68793;BME280;55778;54.346;10.210;2023-06-19T01:31:23;100856.69;;;16.80;95.18
68793;BME280;55778;54.346;10.210;2023-06-19T01:33:51;100847.88;;;16.84;94.58
68793;BME280;55778;54.346;10.210;2023-06-19T01:36:19;100838.41;;;16.87;93.83
68793;BME280;55778;54.346;10.210;2023-06-19T01:38:45;100843.06;;;16.86;94.13
68793;BME280;55778;54.346;10.210;2023-06-19T01:41:14;100830.41;;;16.77;95.20
68793;BME280;55778;54.346;10.210;2023-06-19T01:43:40;100834.03;;;16.78;95.13
68793;BME280;55778;54.346;10.210;2023-06-19T01:46:07;100832.41;;;16.83;94.72
68793;BME280;55778;54.346;10.210;2023-06-19T01:48:34;100823.97;;;16.85;94.34
68793;BME280;55778;54.346;10.210;2023-06-19T01:51:00;100815.34;;;16.88;94.78
68793;BME280;55778;54.346;10.210;2023-06-19T01:53:26;100815.81;;;16.91;94.35
68793;BME280;55778;54.346;10.210;2023-06-19T01:55:51;100810.13;;;16.93;93.75
68793;BME280;55778;54.346;10.210;2023-06-19T01:58:17;100818.56;;;16.91;94.48
68793;BME280;55778;54.346;10.210;2023-06-19T02:00:42;100808.97;;;16.87;94.59
68793;BME280;55778;54.346;10.210;2023-06-19T02:03:08;100803.84;;;16.84;94.97
68793;BME280;55778;54.346;10.210;2023-06-19T02:05:34;100803.66;;;16.86;94.33
68793;BME280;55778;54.346;10.210;2023-06-19T02:08:04;100792.94;;;16.76;94.77
68793;BME280;55778;54.346;10.210;2023-06-19T02:10:29;100791.56;;;16.72;95.36
68793;BME280;55778;54.346;10.210;2023-06-19T02:12:55;100790.00;;;16.78;95.06
68793;BME280;55778;54.346;10.210;2023-06-19T02:15:20;100793.94;;;16.75;95.19
68793;BME280;55778;54.346;10.210;2023-06-19T02:17:45;100791.75;;;16.71;95.63
68793;BME280;55778;54.346;10.210;2023-06-19T02:20:11;100787.28;;;16.70;95.75
68793;BME280;55778;54.346;10.210;2023-06-19T02:22:40;100789.34;;;16.68;95.06
68793;BME280;55778;54.346;10.210;2023-06-19T02:25:06;100797.38;;;16.55;95.82
68793;BME280;55778;54.346;10.210;2023-06-19T02:27:32;100795.13;;;16.58;95.34
68793;BME280;55778;54.346;10.210;2023-06-19T02:29:57;100795.31;;;16.57;95.51
68793;BME280;55778;54.346;10.210;2023-06-19T02:32:23;100797.97;;;16.65;95.55
68793;BME280;55778;54.346;10.210;2023-06-19T02:34:48;100790.59;;;16.65;95.68
68793;BME280;55778;54.346;10.210;2023-06-19T02:37:13;100796.97;;;16.66;95.91
68793;BME280;55778;54.346;10.210;2023-06-19T02:39:39;100795.13;;;16.81;95.27
68793;BME280;55778;54.346;10.210;2023-06-19T02:42:04;100787.34;;;16.84;95.54
68793;BME280;55778;54.346;10.210;2023-06-19T02:44:30;100786.22;;;16.93;95.10
68793;BME280;55778;54.346;10.210;2023-06-19T02:46:55;100797.22;;;16.93;95.50
68793;BME280;55778;54.346;10.210;2023-06-19T02:49:21;100791.66;;;17.01;95.40
68793;BME280;55778;54.346;10.210;2023-06-19T02:51:46;100789.38;;;17.05;95.73
68793;BME280;55778;54.346;10.210;2023-06-19T02:54:11;100784.66;;;17.13;94.80
68793;BME280;55778;54.346;10.210;2023-06-19T02:56:38;100788.28;;;17.28;94.50
68793;BME280;55778;54.346;10.210;2023-06-19T02:59:03;100791.31;;;17.33;94.31
68793;BME280;55778;54.346;10.210;2023-06-19T03:01:28;100788.00;;;17.38;94.30
68793;BME280;55778;54.346;10.210;2023-06-19T03:03:54;100793.28;;;17.47;94.14
68793;BME280;55778;54.346;10.210;2023-06-19T03:06:19;100785.03;;;17.47;94.65
68793;BME280;55778;54.346;10.210;2023-06-19T03:08:45;100788.72;;;17.54;94.48
68793;BME280;55778;54.346;10.210;2023-06-19T03:11:11;100791.84;;;17.66;94.09
68793;BME280;55778;54.346;10.210;2023-06-19T03:13:53;100788.31;;;17.72;93.70
68793;BME280;55778;54.346;10.210;2023-06-19T03:16:19;100786.13;;;17.67;94.22
68793;BME280;55778;54.346;10.210;2023-06-19T03:18:45;100788.50;;;17.70;94.19
68793;BME280;55778;54.346;10.210;2023-06-19T03:21:11;100791.94;;;17.72;94.49
68793;BME280;55778;54.346;10.210;2023-06-19T03:23:37;100789.56;;;17.69;95.14
68793;BME280;55778;54.346;10.210;2023-06-19T03:26:02;100791.09;;;17.72;94.79
68793;BME280;55778;54.346;10.210;2023-06-19T03:28:28;100792.22;;;17.77;95.13
68793;BME280;55778;54.346;10.210;2023-06-19T03:30:54;100794.97;;;17.77;94.68
68793;BME280;55778;54.346;10.210;2023-06-19T03:33:19;100794.41;;;17.82;95.39
68793;BME280;55778;54.346;10.210;2023-06-19T03:35:44;100800.09;;;17.80;94.81
68793;BME280;55778;54.346;10.210;2023-06-19T03:38:10;100790.03;;;17.88;94.72
68793;BME280;55778;54.346;10.210;2023-06-19T03:40:35;100784.59;;;17.94;94.09
68793;BME280;55778;54.346;10.210;2023-06-19T03:43:01;100782.03;;;17.92;94.19
68793;BME280;55778;54.346;10.210;2023-06-19T03:45:26;100782.94;;;18.00;93.68
68793;BME280;55778;54.346;10.210;2023-06-19T03:47:51;100778.50;;;17.99;93.60
68793;BME280;55778;54.346;10.210;2023-06-19T03:50:17;100772.97;;;17.99;93.54
68793;BME280;55778;54.346;10.210;2023-06-19T03:52:42;100768.38;;;18.06;93.13
68793;BME280;55778;54.346;10.210;2023-06-19T03:55:07;100772.69;;;18.08;92.93
68793;BME280;55778;54.346;10.210;2023-06-19T03:57:33;100772.41;;;18.03;94.12
68793;BME280;55778;54.346;10.210;2023-06-19T03:59:58;100772.69;;;18.08;94.11
68793;BME280;55778;54.346;10.210;2023-06-19T04:02:24;100772.56;;;18.16;93.69
68793;BME280;55778;54.346;10.210;2023-06-19T04:04:49;100783.41;;;18.18;94.11
68793;BME280;55778;54.346;10.210;2023-06-19T04:07:14;100775.78;;;18.20;94.04
68793;BME280;55778;54.346;10.210;2023-06-19T04:09:40;100774.34;;;18.24;94.36
68793;BME280;55778;54.346;10.210;2023-06-19T04:12:06;100771.28;;;18.33;93.76
68793;BME280;55778;54.346;10.210;2023-06-19T04:14:32;100765.47;;;18.43;93.12
68793;BME280;55778;54.346;10.210;2023-06-19T04:16:57;100759.16;;;18.49;91.98
68793;BME280;55778;54.346;10.210;2023-06-19T04:19:22;100751.66;;;18.64;90.02
68793;BME280;55778;54.346;10.210;2023-06-19T04:21:48;100756.97;;;18.65;89.29
68793;BME280;55778;54.346;10.210;2023-06-19T04:24:13;100753.00;;;18.68;88.61
68793;BME280;55778;54.346;10.210;2023-06-19T04:26:39;100754.69;;;18.69;88.73
68793;BME280;55778;54.346;10.210;2023-06-19T04:29:04;100748.13;;;18.70;87.82
68793;BME280;55778;54.346;10.210;2023-06-19T04:31:32;100747.50;;;18.74;88.29
68793;BME280;55778;54.346;10.210;2023-06-19T04:33:58;100750.06;;;18.76;88.03
68793;BME280;55778;54.346;10.210;2023-06-19T04:36:23;100746.66;;;18.74;88.44
68793;BME280;55778;54.346;10.210;2023-06-19T04:38:48;100760.03;;;18.70;88.94
68793;BME280;55778;54.346;10.210;2023-06-19T04:41:17;100762.63;;;18.78;89.47
68793;BME280;55778;54.346;10.210;2023-06-19T04:43:42;100762.44;;;18.80;89.88
68793;BME280;55778;54.346;10.210;2023-06-19T04:46:07;100764.94;;;18.75;90.26
68793;BME280;55778;54.346;10.210;2023-06-19T04:48:33;100749.19;;;18.96;89.10
68793;BME280;55778;54.346;10.210;2023-06-19T04:51:01;100747.75;;;19.00;89.48
68793;BME280;55778;54.346;10.210;2023-06-19T04:53:27;100750.56;;;19.07;89.20
68793;BME280;55778;54.346;10.210;2023-06-19T04:55:53;100750.34;;;19.08;88.68
68793;BME280;55778;54.346;10.210;2023-06-19T04:58:20;100756.44;;;19.25;88.31
68793;BME280;55778;54.346;10.210;2023-06-19T05:00:46;100757.56;;;19.30;87.87
68793;BME280;55778;54.346;10.210;2023-06-19T05:03:17;100754.38;;;19.33;88.04
68793;BME280;55778;54.346;10.210;2023-06-19T05:05:43;100759.91;;;19.33;88.04
68793;BME280;55778;54.346;10.210;2023-06-19T05:08:08;100747.63;;;19.36;87.65
68793;BME280;55778;54.346;10.210;2023-06-19T05:10:34;100745.34;;;19.46;87.13
68793;BME280;55778;54.346;10.210;2023-06-19T05:12:59;100748.09;;;19.46;86.54
68793;BME280;55778;54.346;10.210;2023-06-19T05:15:25;100757.69;;;19.50;86.38
68793;BME280;55778;54.346;10.210;2023-06-19T05:17:50;100753.44;;;19.54;86.05
68793;BME280;55778;54.346;10.210;2023-06-19T05:20:16;100752.22;;;19.56;85.37
68793;BME280;55778;54.346;10.210;2023-06-19T05:22:41;100751.28;;;19.49;85.13
68793;BME280;55778;54.346;10.210;2023-06-19T05:25:07;100753.66;;;19.52;85.15
68793;BME280;55778;54.346;10.210;2023-06-19T05:27:33;100744.13;;;19.55;85.37
68793;BME280;55778;54.346;10.210;2023-06-19T05:29:58;100747.72;;;19.55;85.49
68793;BME280;55778;54.346;10.210;2023-06-19T05:32:23;100747.28;;;19.52;85.67
68793;BME280;55778;54.346;10.210;2023-06-19T05:34:49;100750.25;;;19.50;85.38
68793;BME280;55778;54.346;10.210;2023-06-19T05:37:16;100745.38;;;19.52;84.96
68793;BME280;55778;54.346;10.210;2023-06-19T05:39:41;100749.88;;;19.60;84.76
68793;BME280;55778;54.346;10.210;2023-06-19T05:42:07;100746.69;;;19.63;84.23
68793;BME280;55778;54.346;10.210;2023-06-19T05:44:32;100748.25;;;19.72;83.73
68793;BME280;55778;54.346;10.210;2023-06-19T05:46:58;100746.50;;;19.64;83.84
68793;BME280;55778;54.346;10.210;2023-06-19T05:49:23;100749.47;;;19.63;83.63
68793;BME280;55778;54.346;10.210;2023-06-19T05:51:48;100745.88;;;19.62;83.76
68793;BME280;55778;54.346;10.210;2023-06-19T05:54:14;100742.25;;;19.62;83.77
68793;BME280;55778;54.346;10.210;2023-06-19T05:56:39;100748.22;;;19.65;83.44
68793;BME280;55778;54.346;10.210;2023-06-19T05:59:05;100751.41;;;19.69;82.93
68793;BME280;55778;54.346;10.210;2023-06-19T06:01:30;100749.56;;;19.76;82.15
68793;BME280;55778;54.346;10.210;2023-06-19T06:03:56;100751.25;;;19.77;82.58
68793;BME280;55778;54.346;10.210;2023-06-19T06:06:23;100751.25;;;19.83;81.77
68793;BME280;55778;54.346;10.210;2023-06-19T06:08:48;100753.19;;;19.83;81.59
68793;BME280;55778;54.346;10.210;2023-06-19T06:11:14;100749.38;;;19.84;81.59
68793;BME280;55778;54.346;10.210;2023-06-19T06:13:39;100747.88;;;19.82;82.17
68793;BME280;55778;54.346;10.210;2023-06-19T06:16:05;100749.75;;;19.74;82.28
68793;BME280;55778;54.346;10.210;2023-06-19T06:18:30;100751.06;;;19.85;82.06
68793;BME280;55778;54.346;10.210;2023-06-19T06:20:55;100747.00;;;19.81;82.47
68793;BME280;55778;54.346;10.210;2023-06-19T06:23:21;100748.34;;;19.92;82.21
68793;BME280;55778;54.346;10.210;2023-06-19T06:25:46;100753.00;;;19.85;81.63
68793;BME280;55778;54.346;10.210;2023-06-19T06:28:12;100753.00;;;19.91;82.04
68793;BME280;55778;54.346;10.210;2023-06-19T06:30:37;100739.22;;;19.98;81.64
68793;BME280;55778;54.346;10.210;2023-06-19T06:33:04;100748.16;;;20.00;81.60
68793;BME280;55778;54.346;10.210;2023-06-19T06:35:29;100747.09;;;20.01;81.80
68793;BME280;55778;54.346;10.210;2023-06-19T06:37:55;100752.00;;;20.05;81.16
68793;BME280;55778;54.346;10.210;2023-06-19T06:40:20;100753.50;;;20.08;80.87
68793;BME280;55778;54.346;10.210;2023-06-19T06:42:46;100747.13;;;20.07;80.23
68793;BME280;55778;54.346;10.210;2023-06-19T06:45:12;100750.13;;;20.06;80.63
68793;BME280;55778;54.346;10.210;2023-06-19T06:47:38;100742.84;;;20.05;80.47
68793;BME280;55778;54.346;10.210;2023-06-19T06:50:06;100747.09;;;20.01;80.64
68793;BME280;55778;54.346;10.210;2023-06-19T06:52:32;100744.34;;;20.01;80.03
68793;BME280;55778;54.346;10.210;2023-06-19T06:54:57;100742.19;;;19.96;80.62
68793;BME280;55778;54.346;10.210;2023-06-19T06:57:23;100741.16;;;20.04;80.30
68793;BME280;55778;54.346;10.210;2023-06-19T06:59:48;100743.25;;;19.95;80.34
68793;BME280;55778;54.346;10.210;2023-06-19T07:02:13;100742.22;;;20.03;79.68
68793;BME280;55778;54.346;10.210;2023-06-19T07:04:39;100745.41;;;20.06;79.51
68793;BME280;55778;54.346;10.210;2023-06-19T07:07:04;100743.72;;;20.05;78.99
68793;BME280;55778;54.346;10.210;2023-06-19T07:09:31;100739.13;;;20.19;77.57
68793;BME280;55778;54.346;10.210;2023-06-19T07:11:56;100732.28;;;20.21;76.16
68793;BME280;55778;54.346;10.210;2023-06-19T07:14:22;100729.75;;;20.13;76.53
68793;BME280;55778;54.346;10.210;2023-06-19T07:16:47;100733.13;;;20.15;75.71
68793;BME280;55778;54.346;10.210;2023-06-19T07:19:12;100735.94;;;20.28;75.43
68793;BME280;55778;54.346;10.210;2023-06-19T07:21:39;100747.00;;;20.28;75.38
68793;BME280;55778;54.346;10.210;2023-06-19T07:24:05;100734.91;;;20.42;75.45
68793;BME280;55778;54.346;10.210;2023-06-19T07:26:31;100737.06;;;20.53;74.39
68793;BME280;55778;54.346;10.210;2023-06-19T07:28:56;100737.69;;;20.55;74.31
68793;BME280;55778;54.346;10.210;2023-06-19T07:31:22;100733.88;;;20.69;73.86
68793;BME280;55778;54.346;10.210;2023-06-19T07:33:47;100735.16;;;20.67;73.46
68793;BME280;55778;54.346;10.210;2023-06-19T07:36:13;100738.34;;;20.83;73.36
68793;BME280;55778;54.346;10.210;2023-06-19T07:38:40;100747.31;;;20.85;72.59
68793;BME280;55778;54.346;10.210;2023-06-19T07:41:05;100756.91;;;20.89;71.87
68793;BME280;55778;54.346;10.210;2023-06-19T07:43:32;100770.75;;;20.89;72.10
68793;BME280;55778;54.346;10.210;2023-06-19T07:45:58;100771.63;;;20.90;72.90
68793;BME280;55778;54.346;10.210;2023-06-19T07:48:23;100765.63;;;20.73;74.32
68793;BME280;55778;54.346;10.210;2023-06-19T07:50:49;100772.03;;;20.74;74.78
68793;BME280;55778;54.346;10.210;2023-06-19T07:53:14;100774.34;;;20.57;76.68
68793;BME280;55778;54.346;10.210;2023-06-19T07:55:41;100769.19;;;20.41;79.99
68793;BME280;55778;54.346;10.210;2023-06-19T07:58:07;100775.28;;;20.24;81.39
68793;BME280;55778;54.346;10.210;2023-06-19T08:00:32;100773.28;;;20.05;82.75
68793;BME280;55778;54.346;10.210;2023-06-19T08:02:58;100780.06;;;19.96;84.55
68793;BME280;55778;54.346;10.210;2023-06-19T08:05:23;100770.88;;;19.89;81.42
68793;BME280;55778;54.346;10.210;2023-06-19T08:07:48;100771.50;;;19.84;83.71
68793;BME280;55778;54.346;10.210;2023-06-19T08:10:14;100772.78;;;19.88;85.22
68793;BME280;55778;54.346;10.210;2023-06-19T08:12:41;100778.28;;;19.82;84.79
68793;BME280;55778;54.346;10.210;2023-06-19T08:15:08;100778.66;;;19.72;86.19
68793;BME280;55778;54.346;10.210;2023-06-19T08:17:33;100772.25;;;19.65;87.64
68793;BME280;55778;54.346;10.210;2023-06-19T08:19:59;100781.00;;;19.68;87.75
68793;BME280;55778;54.346;10.210;2023-06-19T08:22:25;100780.75;;;19.63;88.43
68793;BME280;55778;54.346;10.210;2023-06-19T08:24:50;100772.44;;;19.63;87.53
68793;BME280;55778;54.346;10.210;2023-06-19T08:27:16;100777.09;;;19.56;89.39
68793;BME280;55778;54.346;10.210;2023-06-19T08:29:41;100766.78;;;19.37;91.52
68793;BME280;55778;54.346;10.210;2023-06-19T08:32:08;100763.72;;;19.05;95.22
68793;BME280;55778;54.346;10.210;2023-06-19T08:34:34;100762.59;;;18.99;96.75
68793;BME280;55778;54.346;10.210;2023-06-19T08:37:00;100754.88;;;18.88;97.14
68793;BME280;55778;54.346;10.210;2023-06-19T08:39:25;100761.69;;;18.65;99.96
68793;BME280;55778;54.346;10.210;2023-06-19T08:41:51;100749.56;;;18.45;100.00
68793;BME280;55778;54.346;10.210;2023-06-19T08:44:18;100744.63;;;18.40;100.00
68793;BME280;55778;54.346;10.210;2023-06-19T08:46:43;100749.78;;;18.29;100.00
68793;BME280;55778;54.346;10.210;2023-06-19T08:49:09;100752.66;;;18.21;100.00
68793;BME280;55778;54.346;10.210;2023-06-19T08:51:37;100760.00;;;18.14;100.00
68793;BME280;55778;54.346;10.210;2023-06-19T08:54:04;100758.31;;;18.13;100.00
68793;BME280;55778;54.346;10.210;2023-06-19T08:56:33;100754.31;;;18.15;100.00
68793;BME280;55778;54.346;10.210;2023-06-19T08:59:16;100755.81;;;18.18;100.00
68793;BME280;55778;54.346;10.210;2023-06-19T09:01:52;100758.53;;;18.32;100.00
68793;BME280;55778;54.346;10.210;2023-06-19T09:04:24;100763.97;;;18.61;100.00
68793;BME280;55778;54.346;10.210;2023-06-19T09:06:59;100751.19;;;18.81;100.00
68793;BME280;55778;54.346;10.210;2023-06-19T09:09:26;100740.28;;;18.94;100.00
68793;BME280;55778;54.346;10.210;2023-06-19T09:12:08;100736.31;;;19.03;99.76
68793;BME280;55778;54.346;10.210;2023-06-19T09:14:42;100728.34;;;19.21;99.31
68793;BME280;55778;54.346;10.210;2023-06-19T09:17:13;100731.94;;;19.49;97.46
68793;BME280;55778;54.346;10.210;2023-06-19T09:19:50;100729.94;;;19.71;95.07
68793;BME280;55778;54.346;10.210;2023-06-19T09:22:17;100734.53;;;19.98;93.74
68793;BME280;55778;54.346;10.210;2023-06-19T09:24:46;100725.72;;;20.29;91.42
68793;BME280;55778;54.346;10.210;2023-06-19T09:27:18;100726.00;;;20.53;88.62
68793;BME280;55778;54.346;10.210;2023-06-19T09:29:46;100719.63;;;20.72;88.84
68793;BME280;55778;54.346;10.210;2023-06-19T09:34:41;100724.50;;;20.83;85.47
68793;BME280;55778;54.346;10.210;2023-06-19T09:37:06;100722.38;;;20.85;86.65
68793;BME280;55778;54.346;10.210;2023-06-19T09:39:34;100718.31;;;20.88;86.17
68793;BME280;55778;54.346;10.210;2023-06-19T09:42:02;100723.91;;;21.14;84.44
68793;BME280;55778;54.346;10.210;2023-06-19T09:44:31;100715.75;;;21.38;83.80
68793;BME280;55778;54.346;10.210;2023-06-19T09:46:59;100712.13;;;22.02;81.01
68793;BME280;55778;54.346;10.210;2023-06-19T09:49:31;100714.56;;;22.60;78.99
68793;BME280;55778;54.346;10.210;2023-06-19T09:51:57;100709.38;;;22.95;76.29
68793;BME280;55778;54.346;10.210;2023-06-19T09:54:24;100704.34;;;23.10;75.00
68793;BME280;55778;54.346;10.210;2023-06-19T09:56:52;100709.69;;;23.54;73.03
68793;BME280;55778;54.346;10.210;2023-06-19T09:59:21;100704.56;;;23.51;69.46
68793;BME280;55778;54.346;10.210;2023-06-19T10:01:48;100702.97;;;23.62;69.18
68793;BME280;55778;54.346;10.210;2023-06-19T10:04:14;100707.56;;;23.31;69.38
68793;BME280;55778;54.346;10.210;2023-06-19T10:06:46;100710.59;;;23.66;69.81
68793;BME280;55778;54.346;10.210;2023-06-19T10:09:14;100707.91;;;23.96;67.55
68793;BME280;55778;54.346;10.210;2023-06-19T10:11:47;100708.00;;;24.19;66.17
68793;BME280;55778;54.346;10.210;2023-06-19T10:14:13;100705.66;;;24.34;65.58
68793;BME280;55778;54.346;10.210;2023-06-19T10:16:40;100696.84;;;24.48;62.59
68793;BME280;55778;54.346;10.210;2023-06-19T10:19:16;100698.41;;;24.74;62.90
68793;BME280;55778;54.346;10.210;2023-06-19T10:21:52;100692.69;;;25.33;63.75
68793;BME280;55778;54.346;10.210;2023-06-19T10:24:19;100690.25;;;25.37;59.29
68793;BME280;55778;54.346;10.210;2023-06-19T10:26:59;100678.94;;;25.20;58.97
68793;BME280;55778;54.346;10.210;2023-06-19T10:29:25;100683.56;;;25.14;58.04
68793;BME280;55778;54.346;10.210;2023-06-19T10:31:52;100689.38;;;25.13;60.08
68793;BME280;55778;54.346;10.210;2023-06-19T10:34:17;100693.00;;;25.13;58.88
68793;BME280;55778;54.346;10.210;2023-06-19T10:36:43;100695.22;;;25.58;59.56
68793;BME280;55778;54.346;10.210;2023-06-19T10:39:09;100689.91;;;25.96;57.27
68793;BME280;55778;54.346;10.210;2023-06-19T10:41:35;100695.31;;;25.63;55.70
68793;BME280;55778;54.346;10.210;2023-06-19T10:44:06;100686.44;;;25.66;57.21
68793;BME280;55778;54.346;10.210;2023-06-19T10:46:37;100694.06;;;25.82;56.77
68793;BME280;55778;54.346;10.210;2023-06-19T10:49:04;100696.13;;;25.98;55.70
68793;BME280;55778;54.346;10.210;2023-06-19T10:51:31;100687.47;;;26.55;56.03
68793;BME280;55778;54.346;10.210;2023-06-19T10:53:57;100687.19;;;26.68;53.75
68793;BME280;55778;54.346;10.210;2023-06-19T10:56:23;100685.59;;;26.89;53.95
68793;BME280;55778;54.346;10.210;2023-06-19T11:01:40;100685.84;;;27.04;52.87
68793;BME280;55778;54.346;10.210;2023-06-19T11:04:07;100682.38;;;27.30;52.10
68793;BME280;55778;54.346;10.210;2023-06-19T11:06:33;100685.75;;;26.99;52.44
68793;BME280;55778;54.346;10.210;2023-06-19T11:08:59;100683.19;;;27.14;52.90
68793;BME280;55778;54.346;10.210;2023-06-19T11:14:00;100685.59;;;27.39;50.01
68793;BME280;55778;54.346;10.210;2023-06-19T11:16:26;100686.94;;;27.36;50.76
68793;BME280;55778;54.346;10.210;2023-06-19T11:18:58;100680.41;;;27.47;48.59
68793;BME280;55778;54.346;10.210;2023-06-19T11:21:34;100681.56;;;27.51;49.51
68793;BME280;55778;54.346;10.210;2023-06-19T11:24:02;100683.47;;;27.29;47.99
68793;BME280;55778;54.346;10.210;2023-06-19T11:26:28;100683.72;;;27.28;49.03
68793;BME280;55778;54.346;10.210;2023-06-19T11:28:54;100684.41;;;27.01;50.46
68793;BME280;55778;54.346;10.210;2023-06-19T11:31:25;100687.91;;;27.25;50.26
68793;BME280;55778;54.346;10.210;2023-06-19T11:33:59;100691.09;;;27.00;50.12
68793;BME280;55778;54.346;10.210;2023-06-19T11:36:26;100687.78;;;27.03;50.45
68793;BME280;55778;54.346;10.210;2023-06-19T11:38:53;100679.53;;;27.47;49.93
68793;BME280;55778;54.346;10.210;2023-06-19T11:41:26;100680.13;;;27.87;49.59
68793;BME280;55778;54.346;10.210;2023-06-19T11:43:58;100683.50;;;28.10;48.35
68793;BME280;55778;54.346;10.210;2023-06-19T11:46:31;100687.31;;;28.47;49.17
68793;BME280;55778;54.346;10.210;2023-06-19T11:49:16;100679.94;;;28.94;46.60
68793;BME280;55778;54.346;10.210;2023-06-19T11:51:44;100680.47;;;29.65;45.74
68793;BME280;55778;54.346;10.210;2023-06-19T11:54:10;100676.56;;;29.71;45.64
68793;BME280;55778;54.346;10.210;2023-06-19T11:56:37;100676.69;;;29.91;43.67
68793;BME280;55778;54.346;10.210;2023-06-19T11:59:03;100666.47;;;30.36;43.93
68793;BME280;55778;54.346;10.210;2023-06-19T12:01:30;100669.38;;;30.76;43.20
68793;BME280;55778;54.346;10.210;2023-06-19T12:03:56;100665.09;;;30.69;43.12
68793;BME280;55778;54.346;10.210;2023-06-19T12:06:21;100668.25;;;31.08;42.31
68793;BME280;55778;54.346;10.210;2023-06-19T12:08:47;100667.97;;;30.99;42.37
68793;BME280;55778;54.346;10.210;2023-06-19T12:11:12;100661.22;;;31.30;40.79
68793;BME280;55778;54.346;10.210;2023-06-19T12:13:40;100662.56;;;31.48;40.18
68793;BME280;55778;54.346;10.210;2023-06-19T12:16:06;100660.94;;;31.32;40.36
68793;BME280;55778;54.346;10.210;2023-06-19T12:18:31;100663.75;;;31.02;40.16
68793;BME280;55778;54.346;10.210;2023-06-19T12:20:56;100658.63;;;30.63;40.20
68793;BME280;55778;54.346;10.210;2023-06-19T12:23:22;100655.47;;;30.35;40.04
68793;BME280;55778;54.346;10.210;2023-06-19T12:25:47;100672.50;;;29.98;41.38
68793;BME280;55778;54.346;10.210;2023-06-19T12:28:12;100671.09;;;30.01;41.77
68793;BME280;55778;54.346;10.210;2023-06-19T12:30:43;100662.91;;;29.94;41.96
68793;BME280;55778;54.346;10.210;2023-06-19T12:33:09;100666.53;;;29.85;42.55
68793;BME280;55778;54.346;10.210;2023-06-19T12:35:35;100669.84;;;29.77;41.53
68793;BME280;55778;54.346;10.210;2023-06-19T12:38:00;100664.81;;;29.79;41.29
68793;BME280;55778;54.346;10.210;2023-06-19T12:40:25;100655.13;;;30.11;40.71
68793;BME280;55778;54.346;10.210;2023-06-19T12:42:51;100652.75;;;30.75;38.38
68793;BME280;55778;54.346;10.210;2023-06-19T12:45:16;100646.53;;;31.23;38.70